This is the latest recevied weather packets stored in our database for station/object WB4MOZ-3. If no packets are shown the sender has not sent any weather packets the latest 1 day(s).
| Time | Temp. | Humidity | Pressure | Rain* | Wind** | Luminosity | Snow |
|---|---|---|---|---|---|---|---|
| 1777990967 | 27.78° C | 75% | 1014 hPa | 0 mm | 2.68 m/s, 47° | - | - |
| 1777990667 | 27.78° C | 77% | 1013.9 hPa | 0 mm | 2.68 m/s, 70° | - | - |
| 1777990368 | 27.22° C | 77% | 1013.8 hPa | 0 mm | 3.13 m/s, 70° | - | - |
| 1777990067 | 27.78° C | 75% | 1013.9 hPa | 0 mm | 2.24 m/s, 79° | - | - |
| 1777989767 | 27.78° C | 76% | 1014 hPa | 0 mm | 2.24 m/s, 100° | - | - |
| 1777989467 | 27.22° C | 77% | 1013.9 hPa | 0 mm | 2.68 m/s, 102° | - | - |
| 1777989167 | 27.22° C | 80% | 1013.9 hPa | 0 mm | 3.13 m/s, 103° | - | - |
| 1777988867 | 26.67° C | 80% | 1013.8 hPa | 0 mm | 2.68 m/s, 82° | - | - |
| 1777988567 | 27.22° C | 82% | 1013.9 hPa | 0 mm | 2.24 m/s, 80° | - | - |
| 1777988267 | 27.22° C | 78% | 1014.1 hPa | 0 mm | 2.68 m/s, 81° | - | - |
| 1777987967 | 27.78° C | 78% | 1014.1 hPa | 0 mm | 3.13 m/s, 101° | - | - |
| 1777987667 | 27.22° C | 79% | 1014.1 hPa | 0 mm | 3.58 m/s, 101° | - | - |
| 1777987368 | 26.67° C | 85% | 1014.2 hPa | 0 mm | 2.24 m/s, 51° | - | - |
| 1777987067 | 26.67° C | 85% | 1014.1 hPa | 0 mm | 3.58 m/s, 77° | - | - |
| 1777986836 | 26.67° C | 89% | 1014.1 hPa | 0 mm | 3.13 m/s, 62° | - | - |
| 1777986836 | 26.11° C | 91% | 1013.8 hPa | 0 mm | 2.24 m/s, 46° | - | - |
| 1777986767 | 26.67° C | 89% | 1014.1 hPa | 0 mm | 3.13 m/s, 62° | - | - |
| 1777986467 | 26.11° C | 91% | 1013.8 hPa | 0 mm | 2.24 m/s, 46° | - | - |
| 1777986168 | 26.11° C | 92% | 1013.9 hPa | 0 mm | 2.68 m/s, 74° | - | - |
| 1777985867 | 26.11° C | 93% | 1013.9 hPa | 0 mm | 3.13 m/s, 36° | - | - |
| 1777985567 | 25.56° C | 93% | 1013.8 hPa | 0 mm | 2.68 m/s, 47° | - | - |
| 1777985267 | 26.11° C | 95% | 1013.9 hPa | 0 mm | 2.24 m/s, 71° | - | - |
| 1777984967 | 25.56° C | 96% | 1013.8 hPa | 0 mm | 2.24 m/s, 63° | - | - |
| 1777984667 | 25.56° C | 96% | 1013.8 hPa | 0 mm | 2.24 m/s, 81° | - | - |
| 1777984367 | 25° C | 96% | 1013.7 hPa | 0 mm | 2.68 m/s, 52° | - | - |
* Rain latest hour (hover to see other rain measurements)
** Current wind speed in m/s (hover to see current wind gust speed)